Time;durP1;ratioP1;P1;durP2;ratioP2;P2;SDS_P1;SDS_P2;PMS_P1;PMS_P2;Temp;Humidity;BMP_temperature;BMP_pressure;BME280_temperature;BME280_humidity;BME280_pressure;Samples;Min_cycle;Max_cycle;Signal;HPM_P1;HPM_P2
2022/05/07 00:00:24;;;;;;;;;10.25;9.00;;;;;;;;5028841;28;45386;-64
2022/05/07 00:02:49;;;;;;;;;8.00;8.00;;;;;;;;5028752;28;45639;-65
2022/05/07 00:05:15;;;;;;;;;13.25;11.50;;;;;;;;5032749;28;45480;-63
2022/05/07 00:07:40;;;;;;;;;10.50;8.00;;;;;;;;5032853;28;46315;-64
2022/05/07 00:10:06;;;;;;;;;12.00;11.00;;;;;;;;5034386;28;45465;-64
2022/05/07 00:12:31;;;;;;;;;9.75;7.75;;;;;;;;5028432;28;45433;-65
2022/05/07 00:14:56;;;;;;;;;8.50;8.50;;;;;;;;5028319;28;45435;-64
2022/05/07 00:20:05;;;;;;;;;10.75;10.00;;;;;;;;5030122;28;45482;-64
2022/05/07 00:22:31;;;;;;;;;11.50;11.50;;;;;;;;5032909;28;45650;-65
2022/05/07 00:24:56;;;;;;;;;8.50;8.50;;;;;;;;5031868;28;45679;-64
2022/05/07 00:27:21;;;;;;;;;13.25;10.25;;;;;;;;5019439;28;46369;-64
2022/05/07 00:29:46;;;;;;;;;11.50;10.00;;;;;;;;5036484;28;45568;-64
2022/05/07 00:32:12;;;;;;;;;10.00;10.00;;;;;;;;5029011;28;45595;-64
2022/05/07 00:34:37;;;;;;;;;11.75;9.50;;;;;;;;5032925;28;45583;-64
2022/05/07 00:37:02;;;;;;;;;9.50;9.50;;;;;;;;5030856;28;46470;-64
2022/05/07 00:39:28;;;;;;;;;10.50;10.50;;;;;;;;5014567;28;45549;-64
2022/05/07 00:41:53;;;;;;;;;11.50;11.50;;;;;;;;5028092;28;45396;-64
2022/05/07 00:44:20;;;;;;;;;11.50;10.50;;;;;;;;5027991;28;45681;-64
2022/05/07 00:46:46;;;;;;;;;13.00;12.00;;;;;;;;5031642;28;49121;-64
2022/05/07 00:49:11;;;;;;;;;11.00;11.00;;;;;;;;5035981;28;45568;-64
2022/05/07 00:51:37;;;;;;;;;11.25;11.25;;;;;;;;5027686;28;45658;-64
2022/05/07 00:54:07;;;;;;;;;9.75;9.75;;;;;;;;5029350;28;45369;-65
2022/05/07 00:56:33;;;;;;;;;13.75;12.00;;;;;;;;5027933;28;46360;-64
2022/05/07 00:58:59;;;;;;;;;13.00;11.75;;;;;;;;5028423;28;45550;-64
2022/05/07 01:01:25;;;;;;;;;11.50;9.00;;;;;;;;5031820;28;45401;-64
2022/05/07 01:03:51;;;;;;;;;12.00;12.00;;;;;;;;5017118;28;45638;-64
2022/05/07 01:06:17;;;;;;;;;10.50;9.00;;;;;;;;5032080;28;46320;-63
2022/05/07 01:08:42;;;;;;;;;13.75;12.25;;;;;;;;5031341;28;45960;-63
2022/05/07 01:11:08;;;;;;;;;14.75;14.00;;;;;;;;5028972;28;45405;-63
2022/05/07 01:13:33;;;;;;;;;11.00;9.75;;;;;;;;5038252;28;45334;-63
2022/05/07 01:15:58;;;;;;;;;10.25;10.25;;;;;;;;5020635;28;47624;-64
2022/05/07 01:18:24;;;;;;;;;11.25;10.75;;;;;;;;5018035;28;45456;-63
2022/05/07 01:20:49;;;;;;;;;14.00;13.00;;;;;;;;5030705;28;45495;-65
2022/05/07 01:23:15;;;;;;;;;15.00;14.00;;;;;;;;5021859;28;45445;-64
2022/05/07 01:25:40;;;;;;;;;14.75;13.75;;;;;;;;5024829;28;45751;-64
2022/05/07 01:28:06;;;;;;;;;11.50;11.50;;;;;;;;5028969;28;45513;-63
2022/05/07 01:30:31;;;;;;;;;14.00;11.75;;;;;;;;5031843;28;45619;-64
2022/05/07 01:32:56;;;;;;;;;16.50;11.75;;;;;;;;5017933;28;45410;-64
2022/05/07 01:35:22;;;;;;;;;11.00;10.50;;;;;;;;5030418;28;46711;-65
2022/05/07 01:37:47;;;;;;;;;12.75;12.75;;;;;;;;5029007;28;45436;-64
2022/05/07 01:40:12;;;;;;;;;10.75;10.75;;;;;;;;5037580;28;45334;-64
2022/05/07 01:42:39;;;;;;;;;16.75;12.00;;;;;;;;5033161;28;45396;-65
2022/05/07 01:45:05;;;;;;;;;10.00;10.00;;;;;;;;5033081;28;45754;-64
2022/05/07 01:50:14;;;;;;;;;15.00;14.50;;;;;;;;5033486;28;45882;-64
2022/05/07 01:52:39;;;;;;;;;12.50;11.00;;;;;;;;5032973;28;45556;-64
2022/05/07 01:55:04;;;;;;;;;16.50;15.50;;;;;;;;5032847;28;45884;-63
2022/05/07 01:57:29;;;;;;;;;13.50;13.50;;;;;;;;5032910;28;45434;-64
2022/05/07 01:59:54;;;;;;;;;14.00;12.50;;;;;;;;5033773;28;45460;-63
2022/05/07 02:02:20;;;;;;;;;12.00;12.00;;;;;;;;5034311;28;45429;-64
2022/05/07 02:04:45;;;;;;;;;12.50;11.25;;;;;;;;5032416;28;46405;-64
2022/05/07 02:07:10;;;;;;;;;13.25;12.75;;;;;;;;5032679;28;45445;-64
2022/05/07 02:09:36;;;;;;;;;12.75;11.75;;;;;;;;5030374;28;45501;-63
2022/05/07 02:12:01;;;;;;;;;14.00;14.00;;;;;;;;5047563;28;45530;-64
2022/05/07 02:14:27;;;;;;;;;11.75;10.50;;;;;;;;5042947;28;47467;-64
2022/05/07 02:16:52;;;;;;;;;14.00;14.00;;;;;;;;5028758;28;45603;-63
2022/05/07 02:19:17;;;;;;;;;15.00;12.25;;;;;;;;5032554;28;45447;-64
2022/05/07 02:21:42;;;;;;;;;12.75;12.75;;;;;;;;5032730;28;45316;-64
2022/05/07 02:24:08;;;;;;;;;13.75;13.75;;;;;;;;5032423;28;45762;-63
2022/05/07 02:26:33;;;;;;;;;9.50;9.50;;;;;;;;5034565;28;45343;-64
2022/05/07 02:28:58;;;;;;;;;11.00;10.00;;;;;;;;5032677;28;45608;-64
2022/05/07 02:31:23;;;;;;;;;13.00;13.00;;;;;;;;5032074;28;45538;-63
2022/05/07 02:33:50;;;;;;;;;11.50;10.00;;;;;;;;5047354;28;48518;-63
2022/05/07 02:36:15;;;;;;;;;16.25;14.75;;;;;;;;5032458;28;45700;-62
2022/05/07 02:38:40;;;;;;;;;14.25;11.75;;;;;;;;5034544;28;45516;-63
2022/05/07 02:43:49;;;;;;;;;11.00;10.75;;;;;;;;5031777;28;45416;-65
2022/05/07 02:46:15;;;;;;;;;12.75;12.00;;;;;;;;5031434;28;45377;-64
2022/05/07 02:48:44;;;;;;;;;13.50;12.25;;;;;;;;5030887;28;47759;-64
2022/05/07 02:51:09;;;;;;;;;11.25;11.25;;;;;;;;5031418;28;45687;-64
2022/05/07 02:53:34;;;;;;;;;11.00;10.75;;;;;;;;5033986;28;45960;-65
2022/05/07 02:56:00;;;;;;;;;16.00;15.00;;;;;;;;5032037;28;45382;-64
2022/05/07 02:58:25;;;;;;;;;15.75;15.75;;;;;;;;5032196;28;45772;-64
2022/05/07 03:00:50;;;;;;;;;12.50;12.50;;;;;;;;5031959;28;45663;-64
2022/05/07 03:03:15;;;;;;;;;12.25;11.00;;;;;;;;5031945;28;45818;-64
2022/05/07 03:05:41;;;;;;;;;13.50;11.25;;;;;;;;5034077;28;45641;-64
2022/05/07 03:08:06;;;;;;;;;13.00;12.50;;;;;;;;5032000;28;45773;-65
2022/05/07 03:10:31;;;;;;;;;19.25;15.50;;;;;;;;5032114;28;45491;-64
2022/05/07 03:12:56;;;;;;;;;11.25;11.25;;;;;;;;5031892;28;45888;-64
2022/05/07 03:15:22;;;;;;;;;13.75;13.75;;;;;;;;5031715;28;45357;-64
2022/05/07 03:17:47;;;;;;;;;14.00;13.00;;;;;;;;5033621;28;45772;-64
2022/05/07 03:20:16;;;;;;;;;17.25;15.75;;;;;;;;5031049;28;45713;-63
2022/05/07 03:22:41;;;;;;;;;13.00;12.25;;;;;;;;5034482;28;46885;-64
2022/05/07 03:25:07;;;;;;;;;14.50;14.50;;;;;;;;5035244;28;45464;-64
2022/05/07 03:27:32;;;;;;;;;15.25;14.25;;;;;;;;5033275;28;45489;-65
2022/05/07 03:29:57;;;;;;;;;15.50;14.50;;;;;;;;5033025;28;45466;-64
2022/05/07 03:32:22;;;;;;;;;14.00;12.50;;;;;;;;5036474;28;45613;-65
2022/05/07 03:34:48;;;;;;;;;14.50;13.00;;;;;;;;5033496;28;45535;-64
2022/05/07 03:37:14;;;;;;;;;17.25;14.00;;;;;;;;5047473;28;45491;-64
2022/05/07 03:39:41;;;;;;;;;15.00;13.75;;;;;;;;5022016;28;45358;-64
2022/05/07 03:42:06;;;;;;;;;15.00;14.50;;;;;;;;5034887;28;46179;-65
2022/05/07 03:44:31;;;;;;;;;14.75;14.50;;;;;;;;5036813;28;45410;-64
2022/05/07 03:46:56;;;;;;;;;21.00;17.25;;;;;;;;5034726;28;45511;-63
2022/05/07 03:49:22;;;;;;;;;15.25;13.50;;;;;;;;5034524;28;45390;-64
2022/05/07 03:54:31;;;;;;;;;18.75;14.75;;;;;;;;5021601;28;45398;-63
2022/05/07 03:56:56;;;;;;;;;14.00;14.00;;;;;;;;5035117;28;45385;-64
2022/05/07 03:59:22;;;;;;;;;17.75;15.75;;;;;;;;5036293;28;45380;-63
2022/05/07 04:01:47;;;;;;;;;18.75;15.50;;;;;;;;5034614;28;46335;-63
2022/05/07 04:04:12;;;;;;;;;18.50;18.50;;;;;;;;5032685;28;45539;-64
2022/05/07 04:06:37;;;;;;;;;19.50;19.00;;;;;;;;5033463;28;45682;-64
2022/05/07 04:09:03;;;;;;;;;23.50;22.50;;;;;;;;5034804;28;45371;-63
2022/05/07 04:11:28;;;;;;;;;18.25;18.25;;;;;;;;5036391;28;46468;-65
2022/05/07 04:13:53;;;;;;;;;20.25;18.00;;;;;;;;5034527;28;45402;-64
2022/05/07 04:16:18;;;;;;;;;18.25;17.50;;;;;;;;5034287;28;45376;-63
2022/05/07 04:18:44;;;;;;;;;19.50;18.00;;;;;;;;5034665;28;45412;-64
2022/05/07 04:21:09;;;;;;;;;18.00;15.50;;;;;;;;5034275;28;45472;-63
2022/05/07 04:23:34;;;;;;;;;12.75;12.75;;;;;;;;5036360;28;45438;-64
2022/05/07 04:25:59;;;;;;;;;20.00;18.00;;;;;;;;5034412;28;46051;-63
2022/05/07 04:28:24;;;;;;;;;20.75;20.50;;;;;;;;5034414;28;45586;-64
2022/05/07 04:30:50;;;;;;;;;18.50;17.25;;;;;;;;5033988;28;46347;-65
2022/05/07 04:33:15;;;;;;;;;21.00;19.75;;;;;;;;5048622;28;45928;-63
2022/05/07 04:35:40;;;;;;;;;14.75;14.25;;;;;;;;5036149;28;45411;-63
2022/05/07 04:38:06;;;;;;;;;14.75;14.00;;;;;;;;5034182;28;45290;-65
2022/05/07 04:40:31;;;;;;;;;19.00;17.25;;;;;;;;5031005;28;48005;-63
2022/05/07 04:42:56;;;;;;;;;17.00;15.75;;;;;;;;5026354;28;45350;-63
2022/05/07 04:45:21;;;;;;;;;20.00;16.75;;;;;;;;5033303;28;45526;-64
2022/05/07 04:47:46;;;;;;;;;13.50;13.25;;;;;;;;5034025;28;45522;-64
2022/05/07 04:50:13;;;;;;;;;17.75;17.75;;;;;;;;5030673;28;47601;-63
2022/05/07 04:52:38;;;;;;;;;18.75;16.50;;;;;;;;5028302;28;45506;-65
2022/05/07 04:55:04;;;;;;;;;20.25;19.50;;;;;;;;5033921;28;45688;-63
2022/05/07 04:57:29;;;;;;;;;20.50;18.25;;;;;;;;5033663;28;45432;-63
2022/05/07 04:59:54;;;;;;;;;17.50;16.00;;;;;;;;5033949;28;46415;-64
2022/05/07 05:02:20;;;;;;;;;14.25;14.25;;;;;;;;5035319;28;45512;-64
2022/05/07 05:04:45;;;;;;;;;19.25;17.75;;;;;;;;5033531;28;45756;-64
2022/05/07 05:07:10;;;;;;;;;19.75;19.75;;;;;;;;5033968;28;45820;-64
2022/05/07 05:09:35;;;;;;;;;19.75;16.75;;;;;;;;5033729;28;46489;-64
2022/05/07 05:12:00;;;;;;;;;21.00;17.50;;;;;;;;5033682;28;45559;-65
2022/05/07 05:17:10;;;;;;;;;19.25;17.50;;;;;;;;5032998;28;45500;-64
2022/05/07 05:19:35;;;;;;;;;22.00;17.75;;;;;;;;5020569;28;46038;-65
2022/05/07 05:22:00;;;;;;;;;24.75;19.50;;;;;;;;5016223;28;45776;-65
2022/05/07 05:24:25;;;;;;;;;18.25;16.00;;;;;;;;5031930;28;46069;-66
2022/05/07 05:26:50;;;;;;;;;24.75;22.75;;;;;;;;5031284;28;45955;-66
2022/05/07 05:29:16;;;;;;;;;26.75;22.25;;;;;;;;5020133;28;46213;-67
2022/05/07 05:31:41;;;;;;;;;28.25;24.25;;;;;;;;5025093;28;45346;-66
2022/05/07 05:34:06;;;;;;;;;23.50;22.00;;;;;;;;5029153;28;45477;-65
2022/05/07 05:36:31;;;;;;;;;19.75;17.75;;;;;;;;5030938;28;45334;-66
2022/05/07 05:38:57;;;;;;;;;19.00;18.00;;;;;;;;5030421;28;47470;-64
2022/05/07 05:41:22;;;;;;;;;24.00;19.50;;;;;;;;5030187;28;45420;-64
2022/05/07 05:43:48;;;;;;;;;25.25;21.25;;;;;;;;5043847;28;45484;-64
2022/05/07 05:46:16;;;;;;;;;20.00;16.00;;;;;;;;5020099;28;45706;-64
2022/05/07 05:48:41;;;;;;;;;23.75;20.75;;;;;;;;5016230;28;46587;-64
2022/05/07 05:51:07;;;;;;;;;19.25;18.75;;;;;;;;5032366;28;45414;-63
2022/05/07 05:53:32;;;;;;;;;20.50;20.50;;;;;;;;5029863;28;45342;-66
2022/05/07 05:55:59;;;;;;;;;23.75;21.50;;;;;;;;5018180;28;45465;-64
2022/05/07 05:58:24;;;;;;;;;17.75;16.50;;;;;;;;5018969;28;46730;-65
2022/05/07 06:00:52;;;;;;;;;25.75;19.00;;;;;;;;5045016;28;45401;-64
2022/05/07 06:03:17;;;;;;;;;17.25;15.75;;;;;;;;5027087;28;45420;-65
2022/05/07 06:05:42;;;;;;;;;20.50;19.25;;;;;;;;5020203;28;45560;-66
2022/05/07 06:08:08;;;;;;;;;22.50;21.50;;;;;;;;5016667;28;45569;-64
2022/05/07 06:10:33;;;;;;;;;25.25;23.25;;;;;;;;5025125;28;45571;-64
2022/05/07 06:12:58;;;;;;;;;20.50;19.75;;;;;;;;5024429;28;45454;-65
2022/05/07 06:15:24;;;;;;;;;23.00;22.75;;;;;;;;5028124;28;45988;-66
2022/05/07 06:17:49;;;;;;;;;21.00;19.25;;;;;;;;5023674;28;46002;-65
2022/05/07 06:20:14;;;;;;;;;25.50;23.00;;;;;;;;5031164;28;45472;-65
2022/05/07 06:22:39;;;;;;;;;22.50;19.25;;;;;;;;5016471;28;45523;-65
2022/05/07 06:27:48;;;;;;;;;19.50;15.00;;;;;;;;5029664;28;45377;-65
2022/05/07 06:30:14;;;;;;;;;24.00;21.50;;;;;;;;5028164;28;45460;-65
2022/05/07 06:32:41;;;;;;;;;27.50;24.00;;;;;;;;5028093;28;45261;-66
2022/05/07 06:35:07;;;;;;;;;24.75;21.00;;;;;;;;5029890;28;45457;-66
2022/05/07 06:37:32;;;;;;;;;21.75;21.75;;;;;;;;5031086;28;45680;-66
2022/05/07 06:39:58;;;;;;;;;24.50;21.25;;;;;;;;5019566;28;45424;-64
2022/05/07 06:42:23;;;;;;;;;25.25;24.25;;;;;;;;5024983;28;45247;-66
2022/05/07 06:44:49;;;;;;;;;17.25;15.00;;;;;;;;5026408;28;45413;-65
2022/05/07 06:47:14;;;;;;;;;23.50;22.25;;;;;;;;5018293;28;46438;-66
2022/05/07 06:49:42;;;;;;;;;22.25;21.25;;;;;;;;5016103;28;45354;-64
2022/05/07 06:52:07;;;;;;;;;23.00;21.50;;;;;;;;5046269;28;45423;-64
2022/05/07 06:54:33;;;;;;;;;20.75;20.75;;;;;;;;5029608;28;45434;-63
2022/05/07 06:56:58;;;;;;;;;19.75;19.00;;;;;;;;5016117;28;47601;-64
2022/05/07 06:59:24;;;;;;;;;19.50;19.00;;;;;;;;5032022;28;45888;-64
2022/05/07 07:01:49;;;;;;;;;22.25;21.25;;;;;;;;5029891;28;45472;-65
2022/05/07 07:04:14;;;;;;;;;18.25;18.25;;;;;;;;5033940;28;45336;-64
2022/05/07 07:06:39;;;;;;;;;20.75;20.50;;;;;;;;5031477;28;45804;-64
2022/05/07 07:09:05;;;;;;;;;18.50;16.00;;;;;;;;5025835;28;45775;-64
2022/05/07 07:11:31;;;;;;;;;20.00;19.00;;;;;;;;5023452;28;46087;-63
2022/05/07 07:13:56;;;;;;;;;24.00;23.25;;;;;;;;5048568;28;45365;-63
2022/05/07 07:16:22;;;;;;;;;16.75;12.25;;;;;;;;5034181;28;45639;-64
2022/05/07 07:18:47;;;;;;;;;17.75;17.00;;;;;;;;5031853;28;45535;-65
2022/05/07 07:21:12;;;;;;;;;19.00;18.00;;;;;;;;5033097;28;45326;-63
2022/05/07 07:23:38;;;;;;;;;19.00;17.50;;;;;;;;5031714;28;45558;-65
2022/05/07 07:26:04;;;;;;;;;24.25;20.00;;;;;;;;5029739;28;46417;-65
2022/05/07 07:28:29;;;;;;;;;23.50;19.75;;;;;;;;5032332;28;45498;-65
2022/05/07 07:30:55;;;;;;;;;13.00;11.75;;;;;;;;5044616;28;45437;-65
2022/05/07 07:33:20;;;;;;;;;21.75;17.50;;;;;;;;5027510;28;45307;-65
2022/05/07 07:35:45;;;;;;;;;19.00;19.00;;;;;;;;5032299;28;45839;-66
2022/05/07 07:38:11;;;;;;;;;21.75;21.75;;;;;;;;5031368;28;45338;-65
2022/05/07 07:40:36;;;;;;;;;24.50;21.75;;;;;;;;5032948;28;45416;-66
2022/05/07 07:43:02;;;;;;;;;23.75;23.00;;;;;;;;5033800;28;45393;-65
2022/05/07 07:48:12;;;;;;;;;65.00;52.25;;;;;;;;5032408;28;45371;-65
2022/05/07 07:50:38;;;;;;;;;18.75;18.00;;;;;;;;5032528;28;45412;-65
2022/05/07 07:53:10;;;;;;;;;31.50;25.75;;;;;;;;5032478;28;45389;-67
2022/05/07 07:55:36;;;;;;;;;23.25;22.50;;;;;;;;5030238;28;47802;-66
2022/05/07 07:58:02;;;;;;;;;26.50;21.50;;;;;;;;5032495;28;45440;-65
2022/05/07 08:00:29;;;;;;;;;18.25;18.25;;;;;;;;5031199;28;45424;-64
2022/05/07 08:02:56;;;;;;;;;19.50;18.25;;;;;;;;5032496;28;45568;-69
2022/05/07 08:05:21;;;;;;;;;13.50;11.75;;;;;;;;5030508;28;48599;-64
2022/05/07 08:13:14;;;;;;;;;22.50;18.25;;;;;;;;5034014;28;45361;-65
2022/05/07 08:15:40;;;;;;;;;18.75;18.75;;;;;;;;5033046;28;47329;-66
2022/05/07 08:18:05;;;;;;;;;21.00;19.75;;;;;;;;5030396;28;45598;-65
2022/05/07 08:20:31;;;;;;;;;18.75;16.50;;;;;;;;5024858;28;45330;-66
2022/05/07 08:22:56;;;;;;;;;21.00;18.25;;;;;;;;5035484;28;45372;-65
2022/05/07 08:25:21;;;;;;;;;17.75;16.75;;;;;;;;5036592;28;46162;-66
2022/05/07 08:27:46;;;;;;;;;23.00;18.25;;;;;;;;5036351;28;45382;-66
2022/05/07 08:30:12;;;;;;;;;18.00;16.25;;;;;;;;5034927;28;45396;-65
2022/05/07 08:32:37;;;;;;;;;17.50;17.50;;;;;;;;5035319;28;45465;-66
2022/05/07 08:35:02;;;;;;;;;15.75;14.50;;;;;;;;5033137;28;48830;-65
2022/05/07 08:37:27;;;;;;;;;18.25;17.00;;;;;;;;5036252;28;45586;-65
2022/05/07 08:39:53;;;;;;;;;20.50;16.75;;;;;;;;5034043;28;45936;-67
2022/05/07 08:42:18;;;;;;;;;16.75;16.25;;;;;;;;5033893;28;45420;-65
2022/05/07 08:44:43;;;;;;;;;18.50;17.50;;;;;;;;5035050;28;45306;-66
2022/05/07 08:47:09;;;;;;;;;18.50;17.00;;;;;;;;5035372;28;45298;-65
2022/05/07 08:49:34;;;;;;;;;15.00;13.75;;;;;;;;5033807;28;45457;-66
2022/05/07 08:52:02;;;;;;;;;17.00;16.00;;;;;;;;5035972;28;45429;-66
2022/05/07 08:54:28;;;;;;;;;13.75;13.75;;;;;;;;5034769;28;45390;-66
2022/05/07 08:56:53;;;;;;;;;12.00;11.00;;;;;;;;5034981;28;45348;-66
2022/05/07 08:59:19;;;;;;;;;13.25;12.75;;;;;;;;5035015;28;45409;-66
2022/05/07 09:01:44;;;;;;;;;9.50;8.25;;;;;;;;5035438;28;45417;-66
2022/05/07 09:04:10;;;;;;;;;11.75;11.50;;;;;;;;5037032;28;46494;-66
2022/05/07 09:06:36;;;;;;;;;13.50;12.50;;;;;;;;5033286;28;46928;-67
2022/05/07 09:09:04;;;;;;;;;13.25;11.25;;;;;;;;5033364;28;45290;-66
2022/05/07 09:11:37;;;;;;;;;12.75;12.00;;;;;;;;5033710;28;45550;-67
2022/05/07 09:14:07;;;;;;;;;14.25;14.25;;;;;;;;5050070;28;47872;-66
2022/05/07 09:16:38;;;;;;;;;12.25;12.25;;;;;;;;5035489;28;45452;-66
2022/05/07 09:19:03;;;;;;;;;13.75;11.75;;;;;;;;5035583;28;45446;-66
2022/05/07 09:21:28;;;;;;;;;13.75;12.00;;;;;;;;5034680;28;45378;-67
2022/05/07 09:24:00;;;;;;;;;15.50;12.75;;;;;;;;5034362;28;45212;-67
2022/05/07 09:26:30;;;;;;;;;12.75;12.50;;;;;;;;5034572;28;45769;-67
2022/05/07 09:28:55;;;;;;;;;11.75;11.75;;;;;;;;5034733;28;45480;-67
2022/05/07 09:31:27;;;;;;;;;10.00;10.00;;;;;;;;5033986;28;45569;-68
2022/05/07 09:33:53;;;;;;;;;9.75;9.25;;;;;;;;5037084;28;45719;-68
2022/05/07 09:36:20;;;;;;;;;6.50;6.50;;;;;;;;5034329;28;45511;-68
2022/05/07 09:38:48;;;;;;;;;9.25;9.25;;;;;;;;5034341;28;45422;-68
2022/05/07 09:41:20;;;;;;;;;11.00;10.00;;;;;;;;5034535;28;45380;-68
2022/05/07 09:43:48;;;;;;;;;8.25;8.25;;;;;;;;5050961;28;48182;-67
2022/05/07 09:46:14;;;;;;;;;10.25;7.50;;;;;;;;5036274;28;45406;-68
2022/05/07 09:48:40;;;;;;;;;8.75;7.50;;;;;;;;5031548;28;45728;-68
2022/05/07 09:51:05;;;;;;;;;8.75;8.75;;;;;;;;5033295;28;45381;-67
2022/05/07 09:58:59;;;;;;;;;25.75;25.75;;;;;;;;5020662;28;45390;-68
2022/05/07 10:01:35;;;;;;;;;12.50;9.75;;;;;;;;5034808;28;45198;-68
2022/05/07 10:04:28;;;;;;;;;15.75;15.75;;;;;;;;5036034;28;46243;-67
2022/05/07 10:06:53;;;;;;;;;7.25;7.25;;;;;;;;5035612;28;45341;-67
2022/05/07 10:09:37;;;;;;;;;7.75;7.75;;;;;;;;5033960;28;45419;-68
2022/05/07 10:12:02;;;;;;;;;9.50;9.25;;;;;;;;5034029;28;45466;-68
2022/05/07 10:14:30;;;;;;;;;8.25;8.25;;;;;;;;5032539;28;48179;-68
2022/05/07 10:16:56;;;;;;;;;7.75;7.75;;;;;;;;5033852;28;45345;-69
2022/05/07 10:19:32;;;;;;;;;11.75;9.50;;;;;;;;5035084;28;45309;-69
2022/05/07 10:21:57;;;;;;;;;9.75;8.25;;;;;;;;5035735;28;45401;-68
2022/05/07 10:24:22;;;;;;;;;7.50;7.50;;;;;;;;5033250;28;45519;-68
2022/05/07 10:26:47;;;;;;;;;8.75;8.75;;;;;;;;5033642;28;45525;-68
2022/05/07 10:29:21;;;;;;;;;8.00;8.00;;;;;;;;5033660;28;45353;-68
2022/05/07 10:31:46;;;;;;;;;9.25;9.25;;;;;;;;5049350;28;45419;-68
2022/05/07 10:34:22;;;;;;;;;12.50;9.50;;;;;;;;5051018;28;46407;-68
2022/05/07 10:36:58;;;;;;;;;10.75;9.50;;;;;;;;5049867;28;46363;-68
2022/05/07 10:39:23;;;;;;;;;7.75;7.75;;;;;;;;5033277;28;45320;-68
2022/05/07 10:41:48;;;;;;;;;7.50;7.50;;;;;;;;5033603;28;45355;-69
2022/05/07 10:44:17;;;;;;;;;8.75;8.75;;;;;;;;5048992;28;48459;-69
2022/05/07 10:46:46;;;;;;;;;7.50;7.50;;;;;;;;5033466;28;46037;-68
2022/05/07 10:49:11;;;;;;;;;10.50;9.50;;;;;;;;5035517;28;45470;-69
2022/05/07 10:51:38;;;;;;;;;7.00;5.00;;;;;;;;5033321;28;45377;-69
2022/05/07 10:54:15;;;;;;;;;11.75;10.75;;;;;;;;5033243;28;45516;-68
2022/05/07 10:56:44;;;;;;;;;7.25;7.25;;;;;;;;5033136;28;45491;-66
2022/05/07 10:59:10;;;;;;;;;8.25;8.25;;;;;;;;5032110;28;45526;-67
2022/05/07 11:01:36;;;;;;;;;10.00;10.00;;;;;;;;5033044;28;45326;-66
2022/05/07 11:04:08;;;;;;;;;9.50;9.00;;;;;;;;5033974;28;46555;-67
2022/05/07 11:06:39;;;;;;;;;9.25;7.25;;;;;;;;5031796;28;45432;-67
2022/05/07 11:09:05;;;;;;;;;9.00;9.00;;;;;;;;5033443;28;45425;-67
2022/05/07 11:11:30;;;;;;;;;14.00;11.25;;;;;;;;5031905;28;45408;-67
2022/05/07 11:13:56;;;;;;;;;6.75;6.75;;;;;;;;5030522;28;47410;-67
2022/05/07 11:16:21;;;;;;;;;9.00;9.00;;;;;;;;5034488;28;45310;-68
2022/05/07 11:18:50;;;;;;;;;9.25;8.75;;;;;;;;5033884;28;45543;-68
2022/05/07 11:21:16;;;;;;;;;6.50;6.50;;;;;;;;5032878;28;45544;-68
2022/05/07 11:23:43;;;;;;;;;8.50;8.50;;;;;;;;5031490;28;48558;-68
2022/05/07 11:26:13;;;;;;;;;8.50;8.50;;;;;;;;5033117;28;45448;-66
2022/05/07 11:28:41;;;;;;;;;15.25;9.50;;;;;;;;5033055;28;45386;-67
2022/05/07 11:31:07;;;;;;;;;10.75;9.25;;;;;;;;5033424;28;45464;-67
2022/05/07 11:33:32;;;;;;;;;9.00;8.00;;;;;;;;5044940;28;47649;-66
2022/05/07 11:36:02;;;;;;;;;11.50;10.50;;;;;;;;5025325;28;45496;-66
2022/05/07 11:38:27;;;;;;;;;20.50;17.00;;;;;;;;5031566;28;45369;-66
2022/05/07 11:40:52;;;;;;;;;11.00;10.75;;;;;;;;5031704;28;45497;-68
2022/05/07 11:46:06;;;;;;;;;7.00;6.25;;;;;;;;5037333;28;45365;-68
2022/05/07 11:48:31;;;;;;;;;7.75;7.75;;;;;;;;5031714;28;45368;-68
2022/05/07 11:50:59;;;;;;;;;8.50;8.00;;;;;;;;5028497;28;45411;-67
2022/05/07 11:53:29;;;;;;;;;8.25;8.00;;;;;;;;5033203;28;47654;-67
2022/05/07 11:56:05;;;;;;;;;10.00;10.00;;;;;;;;5036951;28;45367;-70
2022/05/07 11:58:37;;;;;;;;;9.25;9.25;;;;;;;;5036925;28;45394;-68
2022/05/07 12:01:03;;;;;;;;;7.75;5.50;;;;;;;;5035818;28;45353;-68
2022/05/07 12:03:28;;;;;;;;;10.25;9.25;;;;;;;;5035933;28;45573;-67
2022/05/07 12:05:55;;;;;;;;;9.75;8.00;;;;;;;;5034220;28;45442;-67
2022/05/07 12:08:34;;;;;;;;;6.00;6.00;;;;;;;;5034307;28;45384;-67
2022/05/07 12:10:59;;;;;;;;;9.00;9.00;;;;;;;;5036093;28;45573;-67
2022/05/07 12:13:25;;;;;;;;;7.75;6.25;;;;;;;;5035029;28;47387;-68
2022/05/07 12:18:34;;;;;;;;;8.75;6.25;;;;;;;;5035916;28;45376;-68
2022/05/07 12:21:00;;;;;;;;;6.25;6.00;;;;;;;;5035723;28;45493;-68
2022/05/07 12:31:27;;;;;;;;;6.00;6.00;;;;;;;;5033904;28;45254;-67
2022/05/07 12:33:53;;;;;;;;;5.00;5.00;;;;;;;;5036839;28;45784;-69
2022/05/07 12:36:18;;;;;;;;;5.75;4.00;;;;;;;;5047388;28;45423;-70
2022/05/07 12:38:43;;;;;;;;;5.75;5.75;;;;;;;;5027148;28;45350;-69
2022/05/07 12:41:08;;;;;;;;;6.00;4.50;;;;;;;;5031870;28;45657;-71
2022/05/07 12:43:34;;;;;;;;;5.00;4.00;;;;;;;;5033052;28;46967;-71
2022/05/07 12:46:00;;;;;;;;;5.00;3.75;;;;;;;;5048672;28;45744;-69
2022/05/07 12:48:25;;;;;;;;;4.00;3.25;;;;;;;;5022879;28;45529;-71
2022/05/07 12:50:50;;;;;;;;;5.00;3.75;;;;;;;;5029719;28;45604;-70
2022/05/07 12:53:16;;;;;;;;;3.75;3.75;;;;;;;;5031176;28;46329;-68
2022/05/07 12:55:42;;;;;;;;;2.25;2.25;;;;;;;;5037490;28;45869;-73
2022/05/07 12:58:09;;;;;;;;;4.50;3.00;;;;;;;;5050489;28;45417;-71
2022/05/07 13:00:35;;;;;;;;;3.00;3.00;;;;;;;;5033460;28;45460;-70
2022/05/07 13:03:01;;;;;;;;;4.00;4.00;;;;;;;;5043159;28;45781;-71
2022/05/07 13:05:27;;;;;;;;;1.75;1.75;;;;;;;;5041708;28;45672;-66
2022/05/07 13:07:52;;;;;;;;;2.50;2.50;;;;;;;;5040151;28;45400;-67
2022/05/07 13:10:17;;;;;;;;;3.00;3.00;;;;;;;;5051626;28;45409;-66
2022/05/07 13:12:46;;;;;;;;;2.00;2.00;;;;;;;;5034459;28;46343;-68
2022/05/07 13:15:11;;;;;;;;;3.25;2.25;;;;;;;;5043318;28;45512;-67
2022/05/07 13:17:36;;;;;;;;;2.75;2.00;;;;;;;;5039204;28;45402;-68
2022/05/07 13:20:02;;;;;;;;;4.50;3.00;;;;;;;;5040144;28;45361;-69
2022/05/07 13:22:27;;;;;;;;;6.00;3.00;;;;;;;;5051172;28;45792;-69
2022/05/07 13:24:53;;;;;;;;;3.75;3.00;;;;;;;;5036174;28;45485;-69
2022/05/07 13:27:18;;;;;;;;;2.00;2.00;;;;;;;;5043371;28;45282;-69
2022/05/07 13:29:43;;;;;;;;;1.75;1.75;;;;;;;;5034612;28;45386;-70
2022/05/07 13:32:08;;;;;;;;;3.50;3.50;;;;;;;;5029767;28;47511;-69
2022/05/07 13:34:33;;;;;;;;;3.00;3.00;;;;;;;;5049928;28;45600;-69
2022/05/07 13:36:59;;;;;;;;;3.00;3.00;;;;;;;;5036567;28;45533;-70
2022/05/07 13:39:24;;;;;;;;;5.25;4.00;;;;;;;;5043329;28;45566;-70
2022/05/07 13:41:50;;;;;;;;;3.75;3.75;;;;;;;;5032838;28;47705;-70
2022/05/07 13:44:15;;;;;;;;;4.25;4.25;;;;;;;;5034647;28;45618;-70
2022/05/07 13:46:41;;;;;;;;;5.75;5.75;;;;;;;;5051055;28;45443;-71
2022/05/07 13:49:07;;;;;;;;;8.50;5.75;;;;;;;;5040484;28;45313;-69
2022/05/07 13:51:32;;;;;;;;;7.25;5.75;;;;;;;;5039828;28;46282;-69
2022/05/07 13:53:58;;;;;;;;;6.00;4.50;;;;;;;;5037121;28;45359;-69
2022/05/07 13:56:25;;;;;;;;;4.00;4.00;;;;;;;;5035088;28;45420;-69
2022/05/07 13:58:51;;;;;;;;;3.50;3.50;;;;;;;;5035212;28;45314;-69
2022/05/07 14:01:16;;;;;;;;;4.00;4.00;;;;;;;;5038786;28;45727;-68
2022/05/07 14:03:41;;;;;;;;;3.25;3.25;;;;;;;;5039834;28;45767;-70
2022/05/07 14:06:06;;;;;;;;;3.75;3.75;;;;;;;;5028200;28;45670;-69
2022/05/07 14:08:32;;;;;;;;;4.00;4.00;;;;;;;;5023887;28;45391;-68
2022/05/07 14:10:57;;;;;;;;;3.00;3.00;;;;;;;;5047011;28;47508;-68
2022/05/07 14:13:22;;;;;;;;;3.75;2.75;;;;;;;;5037497;28;45465;-69
2022/05/07 14:15:47;;;;;;;;;4.00;4.00;;;;;;;;5044883;28;45356;-68
2022/05/07 14:18:12;;;;;;;;;3.75;3.75;;;;;;;;5026558;28;45622;-70
2022/05/07 14:20:38;;;;;;;;;4.75;3.75;;;;;;;;5038950;28;45429;-69
2022/05/07 14:23:03;;;;;;;;;6.25;4.00;;;;;;;;5045879;28;45576;-69
2022/05/07 14:25:29;;;;;;;;;2.75;2.75;;;;;;;;5041330;28;45802;-68
2022/05/07 14:27:54;;;;;;;;;3.00;3.00;;;;;;;;5045473;28;45498;-70
2022/05/07 14:30:19;;;;;;;;;4.25;4.25;;;;;;;;5033350;28;45416;-69
2022/05/07 14:32:45;;;;;;;;;3.25;3.25;;;;;;;;5041784;28;45594;-72
2022/05/07 14:35:11;;;;;;;;;3.00;3.00;;;;;;;;5044314;28;45487;-71
2022/05/07 14:37:37;;;;;;;;;4.75;4.00;;;;;;;;5039437;28;45294;-71
2022/05/07 14:40:28;;;;;;;;;3.25;3.00;;;;;;;;5046309;28;47663;-71
2022/05/07 14:42:48;;;;;;;;;2.50;2.50;;;;;;;;5034865;28;45342;-72
2022/05/07 14:45:14;;;;;;;;;2.75;2.75;;;;;;;;5040506;28;45632;-70
2022/05/07 14:47:39;;;;;;;;;2.75;2.75;;;;;;;;5039020;28;45348;-71
2022/05/07 14:50:05;;;;;;;;;3.00;3.00;;;;;;;;5038760;28;48126;-70
2022/05/07 14:52:30;;;;;;;;;3.00;3.00;;;;;;;;5048936;28;45321;-70
2022/05/07 14:54:56;;;;;;;;;8.25;5.50;;;;;;;;5021445;28;45652;-68
2022/05/07 14:57:21;;;;;;;;;3.00;3.00;;;;;;;;5035463;28;45915;-66
2022/05/07 14:59:46;;;;;;;;;4.25;3.00;;;;;;;;5036846;28;46256;-68
2022/05/07 15:02:11;;;;;;;;;4.00;3.00;;;;;;;;5037679;28;45641;-67